Time;durP1;ratioP1;P1;durP2;ratioP2;P2;SDS_P1;SDS_P2;PMS_P1;PMS_P2;Temp;Humidity;BMP_temperature;BMP_pressure;BME280_temperature;BME280_humidity;BME280_pressure;Samples;Min_cycle;Max_cycle;Signal;HPM_P1;HPM_P2
2022/12/17 13:06:45;;;;;;;53.85;41.92;;;;;;;0.40;99.34;102522.59;5094925;28;20044;-54
2022/12/17 13:09:22;;;;;;;57.15;41.95;;;;;;;0.36;99.28;102521.25;5089483;28;20041;-53
2022/12/17 13:12:01;;;;;;;57.30;42.80;;;;;;;0.35;99.90;102516.03;5094530;28;20070;-53
2022/12/17 13:14:32;;;;;;;57.80;43.95;;;;;;;0.28;99.78;102507.78;5094996;28;20044;-51
2022/12/17 13:17:15;;;;;;;56.70;43.72;;;;;;;0.28;99.48;102517.66;5076792;28;20032;-53
2022/12/17 13:19:56;;;;;;;56.05;42.13;;;;;;;0.30;100.00;102513.81;5094079;28;20044;-55
2022/12/17 13:22:24;;;;;;;62.95;43.88;;;;;;;0.26;99.80;102514.28;5094989;28;20087;-55
2022/12/17 13:24:54;;;;;;;56.72;41.65;;;;;;;0.27;99.65;102519.50;5094432;28;20036;-51
2022/12/17 13:27:41;;;;;;;58.63;43.28;;;;;;;0.34;99.57;102522.41;5068262;28;20028;-50
2022/12/17 13:30:20;;;;;;;58.90;44.97;;;;;;;0.37;99.58;102522.91;5089410;28;20052;-52
2022/12/17 13:33:19;;;;;;;55.90;40.83;;;;;;;0.36;99.18;102521.25;5094327;28;20036;-51
2022/12/17 13:36:11;;;;;;;58.25;43.47;;;;;;;0.38;99.04;102519.22;5086214;28;20491;-55
2022/12/17 13:38:54;;;;;;;54.67;40.75;;;;;;;0.42;99.32;102514.41;5093285;28;20417;-52
2022/12/17 13:41:31;;;;;;;55.05;41.40;;;;;;;0.42;99.02;102503.66;5094578;28;20036;-52
2022/12/17 13:44:20;;;;;;;54.85;41.10;;;;;;;0.40;99.23;102511.88;5093113;28;20109;-52
2022/12/17 13:46:49;;;;;;;56.10;42.38;;;;;;;0.39;98.99;102504.84;5092678;28;20048;-51
2022/12/17 13:49:28;;;;;;;58.60;42.63;;;;;;;0.40;99.37;102511.03;5076128;28;20040;-52
2022/12/17 13:52:04;;;;;;;57.92;44.45;;;;;;;0.40;99.50;102514.53;5094136;28;20383;-53
2022/12/17 13:54:38;;;;;;;59.10;43.10;;;;;;;0.34;98.89;102511.69;5094526;28;20142;-50
2022/12/17 13:57:17;;;;;;;60.38;44.10;;;;;;;0.26;99.75;102508.94;5094251;28;20106;-50
2022/12/17 13:59:58;;;;;;;57.28;43.75;;;;;;;0.19;100.00;102506.91;5083144;28;20052;-52
2022/12/17 14:02:30;;;;;;;71.00;51.38;;;;;;;0.23;100.00;102504.72;5092922;28;20085;-53
2022/12/17 14:05:00;;;;;;;65.07;47.05;;;;;;;0.26;100.00;102512.44;5072795;28;20043;-48
2022/12/17 14:07:37;;;;;;;63.08;46.70;;;;;;;0.26;100.00;102515.13;5086277;28;20055;-49
2022/12/17 14:10:11;;;;;;;61.42;45.40;;;;;;;0.24;100.00;102517.16;5093785;28;20062;-53
2022/12/17 14:12:39;;;;;;;62.97;46.05;;;;;;;0.23;100.00;102514.63;5093278;28;20486;-54
2022/12/17 14:15:23;;;;;;;63.67;44.75;;;;;;;0.23;100.00;102522.66;5093328;28;20036;-54
2022/12/17 14:17:51;;;;;;;62.67;47.03;;;;;;;0.24;100.00;102519.84;5093061;28;20048;-53
2022/12/17 14:20:30;;;;;;;58.60;43.92;;;;;;;0.22;100.00;102524.50;5091007;28;20156;-52
2022/12/17 14:23:17;;;;;;;59.53;43.47;;;;;;;0.17;100.00;102524.13;5091870;28;20108;-53
2022/12/17 14:25:44;;;;;;;;;;;;;;;0.21;100.00;102517.44;5103852;28;20052;-51
2022/12/17 14:28:32;;;;;;;57.60;40.22;;;;;;;0.26;100.00;102531.22;5093398;28;19920;-54
2022/12/17 14:31:14;;;;;;;45.75;32.55;;;;;;;0.34;100.00;102533.97;5089255;28;20118;-49
2022/12/17 14:34:09;;;;;;;61.03;41.70;;;;;;;0.36;100.00;102540.00;5092278;28;20044;-54
2022/12/17 14:36:40;;;;;;;74.47;42.60;;;;;;;0.34;100.00;102542.00;5093815;28;20131;-52
2022/12/17 14:39:21;;;;;;;60.95;42.03;;;;;;;0.34;100.00;102543.84;5091130;28;20051;-55
2022/12/17 14:44:41;;;;;;;42.80;30.65;;;;;;;0.37;100.00;102548.88;5089622;28;20036;-52
2022/12/17 14:47:18;;;;;;;29.88;16.98;;;;;;;0.47;100.00;102551.47;5091215;28;20039;-56
2022/12/17 14:50:00;;;;;;;19.20;13.38;;;;;;;0.64;100.00;102547.88;5091787;28;20040;-51
2022/12/17 14:52:48;;;;;;;32.97;22.85;;;;;;;0.74;100.00;102540.53;5092223;28;20187;-54
2022/12/17 14:55:37;;;;;;;40.25;27.42;;;;;;;0.71;100.00;102546.22;5091522;28;20036;-50
2022/12/17 14:58:11;;;;;;;39.10;28.45;;;;;;;0.67;100.00;102550.22;5092901;28;20055;-50
2022/12/17 15:01:03;;;;;;;49.25;34.22;;;;;;;0.61;100.00;102548.19;5093532;28;20051;-55
2022/12/17 15:03:34;;;;;;;54.88;36.65;;;;;;;0.53;99.55;102534.72;5091302;28;20032;-50
2022/12/17 15:06:16;;;;;;;56.33;39.45;;;;;;;0.50;99.07;102543.94;5091714;28;20048;-51
2022/12/17 15:08:48;;;;;;;51.45;37.80;;;;;;;0.51;100.00;102547.47;5100497;28;20048;-53
2022/12/17 15:11:19;;;;;;;51.97;38.17;;;;;;;0.50;98.89;102560.03;5093223;28;20044;-53
2022/12/17 15:13:46;;;;;;;56.20;37.97;;;;;;;0.48;98.81;102561.19;5093158;28;20040;-53
2022/12/17 15:16:22;;;;;;;51.78;37.20;;;;;;;0.44;98.98;102565.19;5057568;28;20048;-52
2022/12/17 15:18:50;;;;;;;51.35;36.40;;;;;;;0.41;98.65;102556.47;5091049;28;20078;-53
2022/12/17 15:21:18;;;;;;;53.97;38.05;;;;;;;0.35;98.17;102565.13;5091881;28;20067;-52
2022/12/17 15:23:46;;;;;;;53.78;37.53;;;;;;;0.30;98.41;102575.47;5091914;28;20490;-54
2022/12/17 15:26:14;;;;;;;55.40;37.33;;;;;;;0.29;98.33;102578.31;5091373;28;20046;-55
2022/12/17 15:28:42;;;;;;;48.97;33.53;;;;;;;0.32;98.59;102588.75;5091480;28;20081;-52
2022/12/17 15:31:13;;;;;;;50.20;34.78;;;;;;;0.26;98.65;102587.50;5092717;28;20070;-51
2022/12/17 15:33:41;;;;;;;47.13;33.58;;;;;;;0.25;98.27;102579.63;5090511;28;20067;-52
2022/12/17 15:36:10;;;;;;;45.45;33.30;;;;;;;0.24;97.86;102588.66;5075189;28;20036;-51
2022/12/17 15:38:38;;;;;;;44.35;30.88;;;;;;;0.22;97.04;102599.56;5092636;28;20055;-54
2022/12/17 15:43:52;;;;;;;;;;;;;;;0.28;97.63;102601.59;5074403;28;20043;-53
2022/12/17 15:46:20;;;;;;;29.45;20.58;;;;;;;0.28;98.31;102604.28;5091172;28;19927;-49
2022/12/17 15:48:47;;;;;;;38.03;26.48;;;;;;;0.34;98.88;102601.00;5092631;28;20051;-52
2022/12/17 15:51:19;;;;;;;25.58;17.17;;;;;;;0.56;100.00;102598.78;5091622;28;20054;-56
2022/12/17 15:53:48;;;;;;;44.50;31.50;;;;;;;0.49;100.00;102598.56;5086101;28;20052;-55
2022/12/17 15:56:22;;;;;;;46.42;32.70;;;;;;;0.29;99.07;102597.94;5091748;28;20044;-52
2022/12/17 15:58:49;;;;;;;49.08;33.15;;;;;;;0.19;99.29;102599.84;5092467;28;20036;-51
2022/12/17 16:01:17;;;;;;;45.65;31.63;;;;;;;0.15;99.09;102598.50;5091643;28;20402;-53
2022/12/17 16:03:45;;;;;;;31.35;21.60;;;;;;;0.25;100.00;102604.59;5091206;28;20052;-50
2022/12/17 16:06:13;;;;;;;50.97;33.90;;;;;;;0.30;100.00;102604.97;5092568;28;20040;-50
2022/12/17 16:08:41;;;;;;;50.78;33.05;;;;;;;0.24;100.00;102602.94;5092451;28;20044;-53
2022/12/17 16:11:10;;;;;;;40.35;28.15;;;;;;;0.19;100.00;102607.88;5089978;28;20040;-52
2022/12/17 16:13:38;;;;;;;45.38;31.17;;;;;;;0.19;100.00;102608.75;5091963;28;20094;-53
2022/12/17 16:16:06;;;;;;;33.22;23.77;;;;;;;0.20;100.00;102606.91;5092522;28;20486;-51
2022/12/17 16:18:36;;;;;;;43.38;30.15;;;;;;;0.21;99.92;102608.59;5095046;28;20070;-46
2022/12/17 16:21:06;;;;;;;46.35;32.00;;;;;;;0.23;100.00;102614.63;5095311;28;20055;-47
2022/12/17 16:23:34;;;;;;;31.98;22.90;;;;;;;0.32;100.00;102615.56;5093940;28;20040;-51
2022/12/17 16:26:04;;;;;;;41.38;29.20;;;;;;;0.32;100.00;102611.03;5092648;28;20043;-53
2022/12/17 16:28:32;;;;;;;48.97;33.03;;;;;;;0.30;100.00;102613.00;5086756;28;20127;-52
2022/12/17 16:31:10;;;;;;;40.10;26.35;;;;;;;0.40;100.00;102613.75;4381773;28;10000609;-52
2022/12/17 16:33:41;;;;;;;34.97;23.08;;;;;;;0.45;100.00;102620.50;5089224;28;20478;-50
2022/12/17 16:36:12;;;;;;;41.30;28.55;;;;;;;0.41;100.00;102620.81;5087756;28;20506;-54
2022/12/17 16:38:47;;;;;;;46.70;33.13;;;;;;;0.33;100.00;102617.22;5086052;28;20158;-53
2022/12/17 16:41:16;;;;;;;51.20;33.65;;;;;;;0.26;99.48;102614.31;5088541;28;20040;-54
2022/12/17 16:43:43;;;;;;;53.42;37.53;;;;;;;0.22;99.42;102621.00;5088509;28;20048;-53
2022/12/17 16:46:33;;;;;;;58.00;37.88;;;;;;;0.19;99.11;102618.59;5092683;28;20094;-54
2022/12/17 16:49:22;;;;;;;48.75;34.42;;;;;;;0.20;98.57;102612.28;5091268;28;20048;-50
2022/12/17 16:51:53;;;;;;;51.38;36.20;;;;;;;0.16;98.52;102613.56;5092102;28;20082;-50
2022/12/17 16:54:24;;;;;;;49.20;35.28;;;;;;;0.14;98.35;102610.19;5092567;28;20074;-49
2022/12/17 16:56:52;;;;;;;54.05;37.05;;;;;;;0.11;97.79;102610.50;5090943;28;20062;-50
2022/12/17 16:59:21;;;;;;;51.88;34.85;;;;;;;0.07;98.17;102612.66;5091606;28;20055;-52
2022/12/17 17:01:50;;;;;;;51.42;33.88;;;;;;;0.08;98.18;102608.16;5091027;28;20044;-48
2022/12/17 17:04:20;;;;;;;51.28;35.63;;;;;;;0.08;97.62;102624.22;5079033;28;20064;-49
2022/12/17 17:06:50;;;;;;;54.42;36.78;;;;;;;0.03;97.76;102621.19;5054464;28;20044;-53
2022/12/17 17:09:18;;;;;;;54.80;36.70;;;;;;;0.01;97.90;102620.47;5084394;28;20116;-49
2022/12/17 17:11:46;;;;;;;54.83;36.40;;;;;;;0.05;98.27;102619.16;5087217;28;20047;-52
2022/12/17 17:14:18;;;;;;;60.22;39.20;;;;;;;0.03;97.26;102610.47;5088020;28;20513;-52
2022/12/17 17:16:46;;;;;;;53.50;36.20;;;;;;;-0.01;97.91;102618.78;5085248;28;20048;-52
2022/12/17 17:19:14;;;;;;;54.38;36.30;;;;;;;-0.01;98.03;102621.47;5089310;28;20048;-48
2022/12/17 17:21:47;;;;;;;60.42;39.45;;;;;;;0.01;97.59;102623.16;5089875;28;20056;-50
2022/12/17 17:24:16;;;;;;;58.35;38.30;;;;;;;-0.04;98.18;102621.78;5081639;28;20097;-50
2022/12/17 17:26:49;;;;;;;58.33;38.80;;;;;;;-0.03;97.65;102628.81;5079310;28;20727;-51
2022/12/17 17:29:17;;;;;;;56.72;37.95;;;;;;;-0.04;97.72;102627.13;5088966;28;20490;-53
2022/12/17 17:31:45;;;;;;;57.90;37.95;;;;;;;-0.05;96.37;102620.09;5074871;28;20037;-49
2022/12/17 17:34:36;;;;;;;52.80;33.85;;;;;;;-0.08;97.19;102620.38;5082003;28;20139;-48
2022/12/17 17:37:03;;;;;;;46.75;30.55;;;;;;;-0.07;97.04;102619.41;5088234;28;20732;-51
2022/12/17 17:39:32;;;;;;;48.75;33.15;;;;;;;-0.04;96.88;102627.13;5079974;28;20125;-49
2022/12/17 17:42:00;;;;;;;50.00;33.03;;;;;;;-0.03;97.03;102628.81;5081093;28;20048;-50
2022/12/17 17:44:28;;;;;;;54.53;36.08;;;;;;;-0.01;97.36;102626.81;5084529;28;20051;-50
2022/12/17 17:46:55;;;;;;;51.10;35.88;;;;;;;0.02;98.04;102630.19;5078611;28;20531;-49
2022/12/17 17:49:24;;;;;;;50.45;33.90;;;;;;;0.04;96.95;102630.88;5086538;28;20096;-49
2022/12/17 17:51:51;;;;;;;43.90;30.20;;;;;;;0.05;97.28;102635.25;5087948;28;20417;-47
2022/12/17 17:54:38;;;;;;;37.45;24.60;;;;;;;0.08;97.50;102640.31;5091123;28;20040;-47
2022/12/17 17:57:06;;;;;;;48.60;32.58;;;;;;;0.05;96.84;102640.59;5088787;28;20044;-50
2022/12/17 17:59:34;;;;;;;48.28;33.22;;;;;;;0.01;96.34;102650.78;5091220;28;20052;-47
2022/12/17 18:02:02;;;;;;;50.38;35.13;;;;;;;-0.05;96.54;102648.72;5072772;28;20043;-49
2022/12/17 18:04:30;;;;;;;57.25;37.25;;;;;;;-0.12;97.02;102648.50;5089809;28;20101;-48
2022/12/17 18:06:58;;;;;;;58.25;35.67;;;;;;;-0.15;97.25;102639.91;5091467;28;20051;-49
2022/12/17 18:09:45;;;;;;;57.08;36.78;;;;;;;-0.17;96.81;102645.41;5089308;28;20571;-49
2022/12/17 18:14:59;;;;;;;53.22;35.17;;;;;;;-0.20;97.10;102652.91;5090766;28;20043;-48
2022/12/17 18:17:48;;;;;;;52.13;33.67;;;;;;;-0.27;96.96;102658.03;5090522;28;20048;-50
2022/12/17 18:20:16;;;;;;;51.97;34.03;;;;;;;-0.29;96.66;102658.22;5089223;28;20051;-48
2022/12/17 18:22:44;;;;;;;45.85;30.42;;;;;;;-0.27;96.55;102658.03;5089018;28;20077;-48
2022/12/17 18:25:14;;;;;;;45.80;31.42;;;;;;;-0.31;96.39;102662.88;5090376;28;20062;-51
2022/12/17 18:27:43;;;;;;;47.85;32.83;;;;;;;-0.35;97.26;102657.97;5090043;28;20101;-50
2022/12/17 18:30:11;;;;;;;42.17;28.42;;;;;;;-0.30;97.68;102667.22;5087907;28;20032;-52
2022/12/17 18:32:38;;;;;;;48.60;33.40;;;;;;;-0.30;97.08;102658.34;5089137;28;20050;-50
2022/12/17 18:35:06;;;;;;;47.05;32.00;;;;;;;-0.29;97.33;102660.03;5090002;28;20526;-53
2022/12/17 18:37:34;;;;;;;48.50;32.35;;;;;;;-0.24;97.48;102652.38;5072394;28;20070;-51
2022/12/17 18:40:02;;;;;;;51.72;34.38;;;;;;;-0.18;97.52;102657.13;5088355;28;20101;-53
2022/12/17 18:45:16;;;;;;;52.60;35.03;;;;;;;-0.16;95.98;102648.97;5083578;28;20048;-50
2022/12/17 18:47:44;;;;;;;58.25;39.17;;;;;;;-0.25;96.32;102650.69;5090282;28;20036;-49
2022/12/17 18:50:12;;;;;;;55.58;38.58;;;;;;;-0.37;96.43;102654.59;5089537;28;20119;-51
2022/12/17 18:52:40;;;;;;;59.60;39.47;;;;;;;-0.44;97.11;102659.69;5088904;28;20044;-50
2022/12/17 18:55:10;;;;;;;59.63;38.05;;;;;;;-0.51;96.98;102654.09;5089382;28;20115;-47
2022/12/17 18:57:37;;;;;;;55.50;34.40;;;;;;;-0.53;96.66;102653.41;5072476;28;20406;-51
2022/12/17 19:00:06;;;;;;;54.45;36.00;;;;;;;-0.49;96.82;102649.44;5089718;28;20036;-50
2022/12/17 19:02:33;;;;;;;56.50;37.65;;;;;;;-0.44;97.56;102651.66;5088856;28;20051;-49
2022/12/17 19:05:01;;;;;;;60.97;38.28;;;;;;;-0.43;97.23;102651.53;5075844;28;20784;-48
2022/12/17 19:07:29;;;;;;;49.95;35.05;;;;;;;-0.39;97.35;102656.56;5089207;28;20036;-49
2022/12/17 19:09:56;;;;;;;46.58;33.03;;;;;;;-0.38;96.61;102653.75;5090242;28;20036;-46
2022/12/17 19:12:24;;;;;;;45.42;30.65;;;;;;;-0.40;94.97;102657.56;5087684;28;20082;-49
2022/12/17 19:14:51;;;;;;;46.13;32.20;;;;;;;-0.49;95.23;102657.47;5089938;28;20040;-54
2022/12/17 19:17:19;;;;;;;48.40;33.55;;;;;;;-0.63;94.44;102651.75;5089792;28;20052;-47
2022/12/17 19:19:47;;;;;;;49.63;35.80;;;;;;;-0.67;95.65;102667.28;5089454;28;20525;-47
2022/12/17 19:22:14;;;;;;;51.22;34.75;;;;;;;-0.71;96.79;102671.25;5083641;28;20060;-50
2022/12/17 19:24:42;;;;;;;51.63;34.58;;;;;;;-0.70;96.13;102672.91;5088463;28;20047;-47
2022/12/17 19:27:10;;;;;;;46.92;32.78;;;;;;;-0.58;96.62;102677.09;5088086;28;20093;-46
2022/12/17 19:29:37;;;;;;;48.35;34.58;;;;;;;-0.53;96.71;102680.19;5089249;28;20739;-45
2022/12/17 19:32:05;;;;;;;49.95;33.78;;;;;;;-0.56;94.80;102683.16;5088616;28;20036;-45
2022/12/17 19:34:33;;;;;;;49.30;34.50;;;;;;;-0.59;93.77;102680.78;5103221;28;20081;-45
2022/12/17 19:37:02;;;;;;;47.90;33.70;;;;;;;-0.74;93.92;102687.63;5089256;28;20040;-48
2022/12/17 19:39:29;;;;;;;44.42;32.38;;;;;;;-0.79;94.92;102685.38;5089682;28;20044;-46
2022/12/17 19:41:57;;;;;;;47.45;32.70;;;;;;;-0.77;95.25;102685.22;5089244;28;20044;-46
2022/12/17 19:44:25;;;;;;;45.03;32.17;;;;;;;-0.76;94.76;102685.06;5088023;28;20044;-46
2022/12/17 19:46:54;;;;;;;45.65;32.72;;;;;;;-0.73;95.09;102679.41;5089095;28;20050;-47
2022/12/17 19:49:22;;;;;;;45.38;33.75;;;;;;;-0.65;94.69;102676.88;5089589;28;20036;-46
2022/12/17 19:51:50;;;;;;;47.17;33.20;;;;;;;-0.63;95.11;102690.09;5086550;28;20100;-46
2022/12/17 19:54:18;;;;;;;45.30;32.40;;;;;;;-0.69;94.57;102686.16;5088958;28;20036;-46
2022/12/17 19:56:45;;;;;;;45.47;32.40;;;;;;;-0.67;94.52;102688.72;5088619;28;20048;-47
2022/12/17 19:59:13;;;;;;;39.67;29.95;;;;;;;-0.69;93.92;102690.69;5089337;28;20093;-46
2022/12/17 20:01:43;;;;;;;39.97;29.77;;;;;;;-0.71;94.36;102698.00;5089901;28;20101;-47
2022/12/17 20:04:12;;;;;;;43.65;30.27;;;;;;;-0.70;93.90;102697.88;5080076;28;20499;-49
2022/12/17 20:06:41;;;;;;;43.17;31.52;;;;;;;-0.66;93.18;102701.09;5091127;28;20044;-51
2022/12/17 20:09:09;;;;;;;42.58;31.30;;;;;;;-0.66;93.28;102698.41;5089393;28;20044;-47
2022/12/17 20:11:37;;;;;;;42.15;31.65;;;;;;;-0.64;93.51;102704.47;5084159;28;20032;-47
2022/12/17 20:14:07;;;;;;;42.78;31.42;;;;;;;-0.65;93.23;102702.75;5087218;28;20394;-49
2022/12/17 20:16:38;;;;;;;42.67;31.17;;;;;;;-0.66;93.91;102701.94;5089207;28;20044;-45
2022/12/17 20:19:09;;;;;;;45.75;31.38;;;;;;;-0.66;93.74;102709.13;5089598;28;20113;-48
2022/12/17 20:21:36;;;;;;;42.42;30.38;;;;;;;-0.64;94.21;102704.47;5091055;28;20048;-50
2022/12/17 20:24:05;;;;;;;44.28;32.05;;;;;;;-0.67;92.93;102710.13;5092705;28;20406;-49
2022/12/17 20:26:33;;;;;;;41.75;29.52;;;;;;;-0.72;93.90;102717.72;5093084;28;20048;-52
2022/12/17 20:29:00;;;;;;;42.90;30.80;;;;;;;-0.73;94.07;102729.44;5091068;28;20090;-53
2022/12/17 20:31:29;;;;;;;43.75;31.80;;;;;;;-0.74;93.66;102728.59;5088739;28;20043;-52
2022/12/17 20:34:03;;;;;;;43.83;32.00;;;;;;;-0.78;92.72;102731.72;5092110;28;20044;-51
2022/12/17 20:36:31;;;;;;;42.30;30.98;;;;;;;-0.80;93.95;102728.31;5092019;28;20048;-54
2022/12/17 20:38:59;;;;;;;43.35;32.13;;;;;;;-0.78;93.99;102726.34;5091273;28;20044;-50
2022/12/17 20:41:29;;;;;;;47.35;32.90;;;;;;;-0.75;94.01;102713.50;5092363;28;20042;-50
2022/12/17 20:43:57;;;;;;;45.63;32.47;;;;;;;-0.74;93.54;102709.88;5092676;28;20043;-49
2022/12/17 20:46:25;;;;;;;44.72;32.92;;;;;;;-0.71;93.33;102709.56;5093320;28;20040;-50
2022/12/17 20:48:53;;;;;;;47.97;33.22;;;;;;;-0.77;93.54;102703.94;5092430;28;20050;-50
2022/12/17 20:51:24;;;;;;;47.17;33.35;;;;;;;-0.74;94.27;102698.31;5090652;28;20040;-51
2022/12/17 20:53:52;;;;;;;46.20;34.05;;;;;;;-0.74;94.16;102693.81;5091288;28;20589;-49
2022/12/17 20:56:24;;;;;;;46.15;32.72;;;;;;;-0.71;93.49;102695.34;5092533;28;20246;-47
2022/12/17 20:58:57;;;;;;;47.92;33.85;;;;;;;-0.69;93.37;102690.69;5091533;28;20075;-48
2022/12/17 21:01:26;;;;;;;47.47;34.47;;;;;;;-0.71;92.90;102693.50;5092612;28;20043;-48
2022/12/17 21:03:56;;;;;;;50.10;35.28;;;;;;;-0.77;92.24;102698.59;5085056;28;20050;-49
2022/12/17 21:06:33;;;;;;;50.22;34.33;;;;;;;-0.93;92.04;102694.72;5091876;28;20494;-48
2022/12/17 21:09:01;;;;;;;50.15;33.95;;;;;;;-1.10;93.14;102692.78;5090873;28;20051;-50
2022/12/17 21:11:30;;;;;;;46.20;33.13;;;;;;;-1.11;94.25;102685.75;5087110;28;20040;-47
2022/12/17 21:14:00;;;;;;;47.60;34.35;;;;;;;-1.05;94.71;102685.19;5091170;28;20040;-49
2022/12/17 21:16:31;;;;;;;48.97;34.13;;;;;;;-0.97;94.87;102687.13;5092321;28;20062;-51
2022/12/17 21:18:59;;;;;;;49.25;33.72;;;;;;;-0.90;94.38;102689.06;5077873;28;20137;-47
2022/12/17 21:21:29;;;;;;;49.35;33.67;;;;;;;-0.90;94.75;102682.88;5072952;28;20556;-49
2022/12/17 21:23:57;;;;;;;48.20;33.92;;;;;;;-0.86;94.46;102689.63;5091423;28;20081;-49
2022/12/17 21:26:31;;;;;;;46.55;32.65;;;;;;;-0.84;94.13;102694.81;5090641;28;20048;-49
2022/12/17 21:29:00;;;;;;;52.20;34.60;;;;;;;-0.86;94.03;102694.97;5091131;28;20044;-49
2022/12/17 21:31:30;;;;;;;46.70;33.40;;;;;;;-0.85;94.11;102712.72;5065134;28;20052;-48
2022/12/17 21:34:00;;;;;;;50.40;34.60;;;;;;;-0.81;94.02;102718.63;5085413;28;20067;-47
2022/12/17 21:36:30;;;;;;;51.85;34.28;;;;;;;-0.81;92.70;102727.50;5088959;28;20051;-48
2022/12/17 21:38:58;;;;;;;48.30;33.70;;;;;;;-0.87;93.34;102725.38;5088147;28;20089;-47
2022/12/17 21:41:31;;;;;;;49.30;34.67;;;;;;;-0.89;93.52;102728.22;5090198;28;20042;-52
2022/12/17 21:44:01;;;;;;;47.92;32.75;;;;;;;-0.92;93.29;102730.34;5090081;28;20043;-49
2022/12/17 21:46:29;;;;;;;46.97;31.90;;;;;;;-0.89;93.44;102728.22;5091136;28;20086;-49
2022/12/17 21:48:59;;;;;;;47.60;33.15;;;;;;;-0.85;93.58;102731.44;5090627;28;20109;-51
2022/12/17 21:51:28;;;;;;;48.55;32.80;;;;;;;-0.83;93.25;102725.94;5089747;28;20043;-47
2022/12/17 21:53:58;;;;;;;48.00;33.63;;;;;;;-0.82;91.82;102730.31;5091387;28;20040;-48
2022/12/17 21:56:26;;;;;;;49.53;32.75;;;;;;;-0.94;92.02;102741.19;5089774;28;20035;-49
2022/12/17 21:58:59;;;;;;;48.45;32.05;;;;;;;-0.95;92.97;102739.50;5091791;28;20040;-49
2022/12/17 22:01:31;;;;;;;44.67;30.40;;;;;;;-0.95;92.31;102749.34;5089368;28;20574;-50
2022/12/17 22:04:01;;;;;;;46.80;30.27;;;;;;;-0.99;92.20;102746.09;5080440;28;20045;-51
2022/12/17 22:06:31;;;;;;;44.20;29.92;;;;;;;-0.93;92.61;102747.38;5088173;28;20048;-52
2022/12/17 22:09:09;;;;;;;40.50;27.67;;;;;;;-0.92;91.92;102749.91;5090963;28;20043;-47
2022/12/17 22:14:01;;;;;;;40.65;26.38;;;;;;;-0.97;92.24;102746.81;5090218;28;20632;-49
2022/12/17 22:14:39;;;;;;;37.05;26.48;;;;;;;-1.02;92.06;102741.06;5090792;28;20086;-51
2022/12/17 22:17:06;;;;;;;39.75;25.67;;;;;;;-0.97;92.20;102743.31;5090825;28;20044;-53
2022/12/17 22:19:34;;;;;;;34.88;24.98;;;;;;;-0.99;92.20;102743.44;5090948;28;20048;-49
2022/12/17 22:22:01;;;;;;;37.65;25.45;;;;;;;-0.99;92.37;102746.09;5090255;28;20048;-53
2022/12/17 22:24:29;;;;;;;37.80;25.40;;;;;;;-0.99;92.24;102743.44;5091390;28;20045;-50
2022/12/17 22:27:03;;;;;;;40.88;25.48;;;;;;;-1.00;91.24;102741.75;5090791;28;20040;-53
2022/12/17 22:35:08;;;;;;;40.13;26.65;;;;;;;-0.98;91.47;102750.50;5090698;28;20047;-46
2022/12/17 22:37:56;;;;;;;39.92;27.52;;;;;;;-1.02;91.26;102746.41;5090767;28;20128;-48
2022/12/17 22:40:44;;;;;;;41.33;27.10;;;;;;;-1.05;91.34;102744.03;5090200;28;20040;-49
2022/12/17 22:43:32;;;;;;;42.97;26.80;;;;;;;-1.08;90.70;102741.66;5089767;28;20102;-53
2022/12/17 22:46:20;;;;;;;42.03;26.25;;;;;;;-1.11;91.78;102742.78;5079576;28;20040;-51
2022/12/17 22:48:48;;;;;;;39.90;26.13;;;;;;;-1.09;91.09;102739.94;5089626;28;20460;-50
2022/12/17 22:51:16;;;;;;;41.13;27.05;;;;;;;-1.09;91.25;102731.91;5089487;28;20119;-51
2022/12/17 22:54:03;;;;;;;38.00;26.33;;;;;;;-1.11;90.94;102736.56;5089543;28;20048;-50
2022/12/17 22:56:31;;;;;;;40.28;26.40;;;;;;;-1.13;90.73;102739.41;5090293;28;20498;-52
2022/12/17 22:59:19;;;;;;;40.40;26.63;;;;;;;-1.07;91.18;102737.97;5091375;28;20044;-55
2022/12/17 23:01:47;;;;;;;40.17;25.35;;;;;;;-1.07;89.79;102743.31;5092070;28;20376;-54
2022/12/17 23:04:16;;;;;;;39.85;27.30;;;;;;;-1.13;89.09;102746.56;5091322;28;20562;-53
2022/12/17 23:06:45;;;;;;;38.15;26.55;;;;;;;-1.25;88.54;102750.38;5093361;28;20402;-52
2022/12/17 23:09:14;;;;;;;40.35;26.55;;;;;;;-1.34;90.13;102746.75;5093116;28;20441;-54
2022/12/17 23:11:42;;;;;;;41.55;26.08;;;;;;;-1.40;89.89;102747.28;5056944;28;20041;-54
2022/12/17 23:14:10;;;;;;;41.72;27.35;;;;;;;-1.40;90.58;102739.28;5092699;28;20044;-53
2022/12/17 23:16:38;;;;;;;38.40;26.00;;;;;;;-1.38;90.09;102735.47;5092852;28;20105;-52
2022/12/17 23:19:06;;;;;;;34.65;24.52;;;;;;;-1.33;90.67;102730.53;5092429;28;20052;-55
2022/12/17 23:21:34;;;;;;;38.60;26.38;;;;;;;-1.33;89.00;102735.06;5091889;28;20067;-53
2022/12/17 23:24:01;;;;;;;39.97;26.67;;;;;;;-1.49;88.03;102727.63;5092095;28;20028;-54
2022/12/17 23:26:34;;;;;;;40.28;27.05;;;;;;;-1.68;89.30;102730.25;5087523;28;20498;-49
2022/12/17 23:29:04;;;;;;;39.83;25.90;;;;;;;-1.80;89.68;102735.75;5099673;28;20089;-50
2022/12/17 23:31:34;;;;;;;40.38;28.13;;;;;;;-1.78;90.94;102740.94;5093220;28;20036;-50
2022/12/17 23:34:02;;;;;;;37.85;25.65;;;;;;;-1.74;90.56;102735.19;5091027;28;20032;-50
2022/12/17 23:36:30;;;;;;;39.63;27.05;;;;;;;-1.66;91.24;102737.19;5093014;28;20055;-51
2022/12/17 23:38:58;;;;;;;41.63;26.98;;;;;;;-1.62;90.12;102733.22;5092236;28;20223;-50
2022/12/17 23:41:28;;;;;;;41.50;27.70;;;;;;;-1.56;90.40;102734.50;5091765;28;20147;-52
2022/12/17 23:43:57;;;;;;;43.80;27.63;;;;;;;-1.55;88.99;102726.34;5092797;28;20044;-50
2022/12/17 23:46:26;;;;;;;42.78;27.13;;;;;;;-1.61;88.81;102729.59;5092451;28;20037;-52
2022/12/17 23:48:54;;;;;;;37.95;26.13;;;;;;;-1.74;88.80;102726.34;5091109;28;20105;-50
2022/12/17 23:51:22;;;;;;;41.28;27.50;;;;;;;-1.80;88.75;102722.41;5095307;28;20443;-53
2022/12/17 23:53:50;;;;;;;41.13;26.70;;;;;;;-1.81;89.57;102720.69;5096103;28;20040;-52
2022/12/17 23:56:21;;;;;;;37.28;26.55;;;;;;;-1.78;89.67;102719.56;5092809;28;20040;-54
2022/12/17 23:58:52;;;;;;;38.28;25.63;;;;;;;-1.70;89.52;102710.88;5093435;28;20048;-52
